sensor_id;sensor_type;location;lat;lon;timestamp;pressure;altitude;pressure_sealevel;temperature;humidity
7668;BME280;3876;42.204;24.686;2023-03-25T00:02:22;99210.56;;;10.16;82.21
7668;BME280;3876;42.204;24.686;2023-03-25T00:04:50;99217.47;;;10.14;82.72
7668;BME280;3876;42.204;24.686;2023-03-25T00:07:17;99211.56;;;10.11;82.64
7668;BME280;3876;42.204;24.686;2023-03-25T00:09:44;99204.81;;;10.08;83.00
7668;BME280;3876;42.204;24.686;2023-03-25T00:12:11;99205.75;;;10.06;82.49
7668;BME280;3876;42.204;24.686;2023-03-25T00:14:39;99207.53;;;10.03;83.10
7668;BME280;3876;42.204;24.686;2023-03-25T00:17:06;99206.91;;;9.95;83.28
7668;BME280;3876;42.204;24.686;2023-03-25T00:19:34;99191.00;;;9.86;83.11
7668;BME280;3876;42.204;24.686;2023-03-25T00:22:01;99191.09;;;9.83;83.81
7668;BME280;3876;42.204;24.686;2023-03-25T00:24:28;99195.38;;;9.82;84.57
7668;BME280;3876;42.204;24.686;2023-03-25T00:26:55;99194.66;;;9.79;84.29
7668;BME280;3876;42.204;24.686;2023-03-25T00:29:22;99194.91;;;9.70;84.81
7668;BME280;3876;42.204;24.686;2023-03-25T00:31:50;99193.34;;;9.66;85.51
7668;BME280;3876;42.204;24.686;2023-03-25T00:34:17;99190.88;;;9.63;85.41
7668;BME280;3876;42.204;24.686;2023-03-25T00:36:44;99186.63;;;9.62;85.49
7668;BME280;3876;42.204;24.686;2023-03-25T00:39:11;99184.06;;;9.62;85.43
7668;BME280;3876;42.204;24.686;2023-03-25T00:41:38;99179.72;;;9.64;85.53
7668;BME280;3876;42.204;24.686;2023-03-25T00:44:06;99186.63;;;9.62;85.59
7668;BME280;3876;42.204;24.686;2023-03-25T00:46:34;99176.66;;;9.53;85.55
7668;BME280;3876;42.204;24.686;2023-03-25T00:49:02;99169.88;;;9.52;85.64
7668;BME280;3876;42.204;24.686;2023-03-25T00:51:29;99168.00;;;9.57;85.64
7668;BME280;3876;42.204;24.686;2023-03-25T00:53:58;99167.22;;;9.55;85.54
7668;BME280;3876;42.204;24.686;2023-03-25T00:56:26;99173.38;;;9.49;86.44
7668;BME280;3876;42.204;24.686;2023-03-25T00:58:53;99148.28;;;9.31;86.61
7668;BME280;3876;42.204;24.686;2023-03-25T01:01:21;99171.09;;;9.38;86.66
7668;BME280;3876;42.204;24.686;2023-03-25T01:03:52;99172.91;;;9.35;87.21
7668;BME280;3876;42.204;24.686;2023-03-25T01:06:24;99156.13;;;9.26;87.25
7668;BME280;3876;42.204;24.686;2023-03-25T01:08:54;99161.25;;;9.25;87.44
7668;BME280;3876;42.204;24.686;2023-03-25T01:11:24;99166.38;;;9.25;87.40
7668;BME280;3876;42.204;24.686;2023-03-25T01:13:53;99162.25;;;9.21;87.55
7668;BME280;3876;42.204;24.686;2023-03-25T01:16:21;99162.19;;;9.22;87.43
7668;BME280;3876;42.204;24.686;2023-03-25T01:18:48;99155.47;;;9.18;87.57
7668;BME280;3876;42.204;24.686;2023-03-25T01:21:15;99150.44;;;9.17;87.44
7668;BME280;3876;42.204;24.686;2023-03-25T01:23:43;99149.53;;;9.18;87.21
7668;BME280;3876;42.204;24.686;2023-03-25T01:26:10;99134.28;;;9.15;87.56
7668;BME280;3876;42.204;24.686;2023-03-25T01:28:38;99136.81;;;9.15;87.55
7668;BME280;3876;42.204;24.686;2023-03-25T01:31:08;99136.88;;;9.13;88.24
7668;BME280;3876;42.204;24.686;2023-03-25T01:33:35;99143.75;;;9.11;88.10
7668;BME280;3876;42.204;24.686;2023-03-25T01:36:03;99132.72;;;9.09;88.13
7668;BME280;3876;42.204;24.686;2023-03-25T01:38:33;99110.16;;;8.94;88.29
7668;BME280;3876;42.204;24.686;2023-03-25T01:41:02;99136.16;;;9.08;88.46
7668;BME280;3876;42.204;24.686;2023-03-25T01:43:30;99126.25;;;8.98;88.34
7668;BME280;3876;42.204;24.686;2023-03-25T01:45:57;99133.78;;;9.02;88.76
7668;BME280;3876;42.204;24.686;2023-03-25T01:48:26;99121.91;;;9.01;88.63
7668;BME280;3876;42.204;24.686;2023-03-25T01:50:59;99130.44;;;9.00;89.25
7668;BME280;3876;42.204;24.686;2023-03-25T01:53:29;99127.09;;;8.98;89.28
7668;BME280;3876;42.204;24.686;2023-03-25T01:55:58;99118.69;;;8.94;89.69
7668;BME280;3876;42.204;24.686;2023-03-25T01:58:28;99111.09;;;8.91;90.27
7668;BME280;3876;42.204;24.686;2023-03-25T02:00:56;99110.34;;;8.88;90.56
7668;BME280;3876;42.204;24.686;2023-03-25T02:03:25;99106.97;;;8.86;90.80
7668;BME280;3876;42.204;24.686;2023-03-25T02:05:55;99106.97;;;8.86;90.75
7668;BME280;3876;42.204;24.686;2023-03-25T02:08:25;99120.66;;;8.85;90.78
7668;BME280;3876;42.204;24.686;2023-03-25T02:10:52;99123.25;;;8.83;90.89
7668;BME280;3876;42.204;24.686;2023-03-25T02:13:19;99111.41;;;8.79;90.92
7668;BME280;3876;42.204;24.686;2023-03-25T02:16:13;99091.44;;;8.63;91.65
7668;BME280;3876;42.204;24.686;2023-03-25T02:18:52;99104.88;;;8.69;91.75
7668;BME280;3876;42.204;24.686;2023-03-25T02:21:56;99096.44;;;8.67;92.19
7668;BME280;3876;42.204;24.686;2023-03-25T02:27:55;99099.19;;;8.60;92.82
7668;BME280;3876;42.204;24.686;2023-03-25T02:30:38;99072.34;;;8.45;92.84
7668;BME280;3876;42.204;24.686;2023-03-25T02:33:42;99089.97;;;8.54;93.09
7668;BME280;3876;42.204;24.686;2023-03-25T02:36:51;99089.22;;;8.51;93.38
7668;BME280;3876;42.204;24.686;2023-03-25T02:39:29;99092.66;;;8.50;93.14
7668;BME280;3876;42.204;24.686;2023-03-25T02:42:00;99090.97;;;8.49;92.98
7668;BME280;3876;42.204;24.686;2023-03-25T02:44:34;99089.28;;;8.48;93.50
7668;BME280;3876;42.204;24.686;2023-03-25T02:47:05;99091.06;;;8.46;93.36
7668;BME280;3876;42.204;24.686;2023-03-25T02:49:35;99087.69;;;8.43;93.14
7668;BME280;3876;42.204;24.686;2023-03-25T02:52:08;99073.28;;;8.41;93.26
7668;BME280;3876;42.204;24.686;2023-03-25T02:54:38;99072.44;;;8.40;93.28
7668;BME280;3876;42.204;24.686;2023-03-25T02:57:11;99075.09;;;8.37;93.46
7668;BME280;3876;42.204;24.686;2023-03-25T02:59:44;99062.56;;;8.28;93.70
7668;BME280;3876;42.204;24.686;2023-03-25T03:02:14;99047.47;;;8.19;94.08
7668;BME280;3876;42.204;24.686;2023-03-25T03:04:46;99051.53;;;8.26;94.38
7668;BME280;3876;42.204;24.686;2023-03-25T03:07:21;99032.31;;;8.13;94.27
7668;BME280;3876;42.204;24.686;2023-03-25T03:09:54;99057.50;;;8.25;94.41
7668;BME280;3876;42.204;24.686;2023-03-25T03:12:35;99068.59;;;8.24;94.12
7668;BME280;3876;42.204;24.686;2023-03-25T03:15:18;99067.81;;;8.22;94.13
7668;BME280;3876;42.204;24.686;2023-03-25T03:17:53;99059.44;;;8.17;93.63
7668;BME280;3876;42.204;24.686;2023-03-25T03:20:29;99069.56;;;8.20;94.00
7668;BME280;3876;42.204;24.686;2023-03-25T03:23:05;99052.66;;;8.16;93.62
7668;BME280;3876;42.204;24.686;2023-03-25T03:25:40;99054.38;;;8.14;93.21
7668;BME280;3876;42.204;24.686;2023-03-25T03:28:15;99054.47;;;8.11;93.63
7668;BME280;3876;42.204;24.686;2023-03-25T03:30:49;99046.22;;;8.02;93.71
7668;BME280;3876;42.204;24.686;2023-03-25T03:33:21;99048.00;;;7.98;94.42
7668;BME280;3876;42.204;24.686;2023-03-25T03:35:53;99042.25;;;7.90;94.26
7668;BME280;3876;42.204;24.686;2023-03-25T03:38:25;99049.78;;;7.62;95.46
7668;BME280;3876;42.204;24.686;2023-03-25T03:40:56;99059.06;;;7.63;96.03
7668;BME280;3876;42.204;24.686;2023-03-25T03:43:29;99059.06;;;7.65;95.81
7668;BME280;3876;42.204;24.686;2023-03-25T03:45:58;99059.91;;;7.64;96.24
7668;BME280;3876;42.204;24.686;2023-03-25T03:48:31;99056.44;;;7.66;96.58
7668;BME280;3876;42.204;24.686;2023-03-25T03:51:07;99051.31;;;7.68;95.87
7668;BME280;3876;42.204;24.686;2023-03-25T03:53:41;99057.34;;;7.65;95.73
7668;BME280;3876;42.204;24.686;2023-03-25T03:56:14;99047.91;;;7.69;96.05
7668;BME280;3876;42.204;24.686;2023-03-25T03:58:47;99046.25;;;7.66;95.58
7668;BME280;3876;42.204;24.686;2023-03-25T04:01:21;99051.34;;;7.66;95.95
7668;BME280;3876;42.204;24.686;2023-03-25T04:03:57;99045.47;;;7.63;95.57
7668;BME280;3876;42.204;24.686;2023-03-25T04:06:29;99040.44;;;7.60;95.44
7668;BME280;3876;42.204;24.686;2023-03-25T04:09:02;99037.97;;;7.58;95.32
7668;BME280;3876;42.204;24.686;2023-03-25T04:11:36;99028.94;;;7.44;94.70
7668;BME280;3876;42.204;24.686;2023-03-25T04:14:06;99045.84;;;7.48;94.89
7668;BME280;3876;42.204;24.686;2023-03-25T04:16:34;99053.56;;;7.45;95.43
7668;BME280;3876;42.204;24.686;2023-03-25T04:19:02;99052.78;;;7.43;95.56
7668;BME280;3876;42.204;24.686;2023-03-25T04:21:29;99059.72;;;7.36;95.60
7668;BME280;3876;42.204;24.686;2023-03-25T04:23:56;99055.56;;;7.32;95.54
7668;BME280;3876;42.204;24.686;2023-03-25T04:26:26;99058.97;;;7.32;95.44
7668;BME280;3876;42.204;24.686;2023-03-25T04:28:55;99064.84;;;7.34;95.65
7668;BME280;3876;42.204;24.686;2023-03-25T04:31:28;99064.91;;;7.33;95.53
7668;BME280;3876;42.204;24.686;2023-03-25T04:33:56;99050.63;;;7.24;95.45
7668;BME280;3876;42.204;24.686;2023-03-25T04:36:23;99066.53;;;7.35;94.90
7668;BME280;3876;42.204;24.686;2023-03-25T04:38:53;99063.91;;;7.38;95.06
7668;BME280;3876;42.204;24.686;2023-03-25T04:41:20;99068.16;;;7.39;94.89
7668;BME280;3876;42.204;24.686;2023-03-25T04:43:48;99068.16;;;7.39;95.05
7668;BME280;3876;42.204;24.686;2023-03-25T04:46:17;99073.25;;;7.39;94.91
7668;BME280;3876;42.204;24.686;2023-03-25T04:48:44;99068.94;;;7.42;95.47
7668;BME280;3876;42.204;24.686;2023-03-25T04:51:12;99077.38;;;7.45;95.15
7668;BME280;3876;42.204;24.686;2023-03-25T04:53:40;99079.75;;;7.53;95.37
7668;BME280;3876;42.204;24.686;2023-03-25T04:56:12;99083.00;;;7.59;95.46
7668;BME280;3876;42.204;24.686;2023-03-25T04:58:40;99070.13;;;7.64;95.71
7668;BME280;3876;42.204;24.686;2023-03-25T05:01:10;99059.84;;;7.67;95.95
7668;BME280;3876;42.204;24.686;2023-03-25T05:03:46;99053.72;;;7.74;96.11
7668;BME280;3876;42.204;24.686;2023-03-25T05:06:16;99061.69;;;7.96;96.47
7668;BME280;3876;42.204;24.686;2023-03-25T05:08:43;99063.97;;;8.06;95.89
7668;BME280;3876;42.204;24.686;2023-03-25T05:11:10;99070.22;;;8.28;95.31
7668;BME280;3876;42.204;24.686;2023-03-25T05:13:37;99062.16;;;8.43;95.48
7668;BME280;3876;42.204;24.686;2023-03-25T05:16:04;99071.91;;;8.62;94.83
7668;BME280;3876;42.204;24.686;2023-03-25T05:18:31;99073.94;;;8.80;94.70
7668;BME280;3876;42.204;24.686;2023-03-25T05:20:59;99070.88;;;8.98;93.77
7668;BME280;3876;42.204;24.686;2023-03-25T05:23:27;99076.25;;;9.17;93.30
7668;BME280;3876;42.204;24.686;2023-03-25T05:25:56;99073.38;;;9.27;91.97
7668;BME280;3876;42.204;24.686;2023-03-25T05:28:23;99074.63;;;9.42;92.94
7668;BME280;3876;42.204;24.686;2023-03-25T05:30:49;99069.66;;;9.65;92.58
7668;BME280;3876;42.204;24.686;2023-03-25T05:33:17;99063.94;;;9.83;91.88
7668;BME280;3876;42.204;24.686;2023-03-25T05:35:44;99071.81;;;10.03;91.13
7668;BME280;3876;42.204;24.686;2023-03-25T05:38:13;99062.53;;;10.26;90.88
7668;BME280;3876;42.204;24.686;2023-03-25T05:40:42;99052.91;;;10.32;89.74
7668;BME280;3876;42.204;24.686;2023-03-25T05:43:10;99057.25;;;10.55;88.49
7668;BME280;3876;42.204;24.686;2023-03-25T05:45:37;99053.78;;;10.79;87.74
7668;BME280;3876;42.204;24.686;2023-03-25T05:48:04;99057.25;;;11.01;86.26
7668;BME280;3876;42.204;24.686;2023-03-25T05:50:31;99068.41;;;11.22;86.58
7668;BME280;3876;42.204;24.686;2023-03-25T05:52:58;99063.66;;;11.35;85.71
7668;BME280;3876;42.204;24.686;2023-03-25T05:55:26;99064.47;;;11.57;84.66
7668;BME280;3876;42.204;24.686;2023-03-25T05:57:54;99063.59;;;11.80;84.93
7668;BME280;3876;42.204;24.686;2023-03-25T06:00:23;99059.06;;;12.06;83.26
7668;BME280;3876;42.204;24.686;2023-03-25T06:02:50;99067.63;;;12.27;83.40
7668;BME280;3876;42.204;24.686;2023-03-25T06:05:17;99068.50;;;12.46;80.39
7668;BME280;3876;42.204;24.686;2023-03-25T06:07:48;99065.13;;;12.64;78.63
7668;BME280;3876;42.204;24.686;2023-03-25T06:10:16;99073.53;;;12.68;77.08
7668;BME280;3876;42.204;24.686;2023-03-25T06:12:45;99074.41;;;12.87;76.64
7668;BME280;3876;42.204;24.686;2023-03-25T06:15:13;99081.94;;;12.92;74.58
7668;BME280;3876;42.204;24.686;2023-03-25T06:17:42;99068.94;;;12.95;75.03
7668;BME280;3876;42.204;24.686;2023-03-25T06:20:12;99072.63;;;13.08;75.21
7668;BME280;3876;42.204;24.686;2023-03-25T06:22:42;99071.78;;;13.26;74.51
7668;BME280;3876;42.204;24.686;2023-03-25T06:25:10;99067.44;;;13.45;73.52
7668;BME280;3876;42.204;24.686;2023-03-25T06:27:37;99071.22;;;13.57;74.64
7668;BME280;3876;42.204;24.686;2023-03-25T06:30:09;99075.06;;;13.65;74.05
7668;BME280;3876;42.204;24.686;2023-03-25T06:32:37;99053.44;;;13.70;74.30
7668;BME280;3876;42.204;24.686;2023-03-25T06:35:05;99068.41;;;13.96;75.64
7668;BME280;3876;42.204;24.686;2023-03-25T06:37:32;99064.50;;;14.06;71.66
7668;BME280;3876;42.204;24.686;2023-03-25T06:39:59;99065.09;;;14.11;71.28
7668;BME280;3876;42.204;24.686;2023-03-25T06:42:26;99055.06;;;14.22;72.15
7668;BME280;3876;42.204;24.686;2023-03-25T06:44:53;99057.09;;;14.34;71.85
7668;BME280;3876;42.204;24.686;2023-03-25T06:47:22;99056.63;;;14.43;71.97
7668;BME280;3876;42.204;24.686;2023-03-25T06:49:49;99058.53;;;14.73;70.07
7668;BME280;3876;42.204;24.686;2023-03-25T06:52:16;99062.47;;;14.95;69.54
7668;BME280;3876;42.204;24.686;2023-03-25T06:54:42;99058.72;;;15.16;70.30
7668;BME280;3876;42.204;24.686;2023-03-25T06:57:09;99058.06;;;15.29;68.39
7668;BME280;3876;42.204;24.686;2023-03-25T06:59:36;99063.66;;;15.37;68.31
7668;BME280;3876;42.204;24.686;2023-03-25T07:02:03;99070.16;;;15.44;67.06
7668;BME280;3876;42.204;24.686;2023-03-25T07:04:31;99069.63;;;15.68;66.82
7668;BME280;3876;42.204;24.686;2023-03-25T07:06:58;99060.09;;;15.85;66.79
7668;BME280;3876;42.204;24.686;2023-03-25T07:09:25;99063.09;;;15.93;65.29
7668;BME280;3876;42.204;24.686;2023-03-25T07:11:52;99044.38;;;16.03;64.66
7668;BME280;3876;42.204;24.686;2023-03-25T07:14:18;99069.00;;;16.39;62.94
7668;BME280;3876;42.204;24.686;2023-03-25T07:16:45;99062.06;;;16.39;62.90
7668;BME280;3876;42.204;24.686;2023-03-25T07:19:12;99058.19;;;16.46;62.41
7668;BME280;3876;42.204;24.686;2023-03-25T07:21:40;99058.66;;;16.53;64.14
7668;BME280;3876;42.204;24.686;2023-03-25T07:24:07;99065.63;;;16.80;62.09
7668;BME280;3876;42.204;24.686;2023-03-25T07:26:34;99054.34;;;16.96;63.08
7668;BME280;3876;42.204;24.686;2023-03-25T07:29:01;99059.69;;;17.07;62.74
7668;BME280;3876;42.204;24.686;2023-03-25T07:31:28;99065.03;;;17.18;61.25
7668;BME280;3876;42.204;24.686;2023-03-25T07:33:55;99064.28;;;17.30;60.64
7668;BME280;3876;42.204;24.686;2023-03-25T07:36:24;99052.44;;;17.26;60.80
7668;BME280;3876;42.204;24.686;2023-03-25T07:38:52;99051.31;;;17.30;61.34
7668;BME280;3876;42.204;24.686;2023-03-25T07:41:19;99051.56;;;17.40;60.57
7668;BME280;3876;42.204;24.686;2023-03-25T07:43:46;99056.44;;;17.58;60.33
7668;BME280;3876;42.204;24.686;2023-03-25T07:46:13;99042.09;;;17.79;60.16
7668;BME280;3876;42.204;24.686;2023-03-25T07:48:39;99049.53;;;18.11;59.55
7668;BME280;3876;42.204;24.686;2023-03-25T07:51:06;99040.41;;;18.30;58.30
7668;BME280;3876;42.204;24.686;2023-03-25T07:53:34;99037.09;;;18.41;57.31
7668;BME280;3876;42.204;24.686;2023-03-25T07:56:05;99028.34;;;18.17;57.52
7668;BME280;3876;42.204;24.686;2023-03-25T07:58:32;99021.31;;;18.19;58.11
7668;BME280;3876;42.204;24.686;2023-03-25T08:00:59;99025.34;;;18.35;57.34
7668;BME280;3876;42.204;24.686;2023-03-25T08:03:26;99030.03;;;18.56;57.60
7668;BME280;3876;42.204;24.686;2023-03-25T08:05:53;99021.75;;;18.63;56.61
7668;BME280;3876;42.204;24.686;2023-03-25T08:08:20;99020.88;;;18.75;56.21
7668;BME280;3876;42.204;24.686;2023-03-25T08:10:47;99019.59;;;18.94;57.44
7668;BME280;3876;42.204;24.686;2023-03-25T08:13:15;99026.19;;;19.10;55.73
7668;BME280;3876;42.204;24.686;2023-03-25T08:15:42;99015.97;;;19.20;57.44
7668;BME280;3876;42.204;24.686;2023-03-25T08:18:09;99014.50;;;19.41;54.42
7668;BME280;3876;42.204;24.686;2023-03-25T08:20:35;99016.13;;;19.42;54.70
7668;BME280;3876;42.204;24.686;2023-03-25T08:23:02;98995.78;;;19.60;53.83
7668;BME280;3876;42.204;24.686;2023-03-25T08:25:34;99012.28;;;19.82;53.71
7668;BME280;3876;42.204;24.686;2023-03-25T08:28:02;99007.41;;;19.78;53.00
7668;BME280;3876;42.204;24.686;2023-03-25T08:30:30;99012.44;;;19.92;54.37
7668;BME280;3876;42.204;24.686;2023-03-25T08:33:02;99005.00;;;19.99;53.44
7668;BME280;3876;42.204;24.686;2023-03-25T08:35:29;99001.22;;;20.03;54.25
7668;BME280;3876;42.204;24.686;2023-03-25T08:37:56;99005.00;;;19.99;52.19
7668;BME280;3876;42.204;24.686;2023-03-25T08:40:29;99002.81;;;19.81;51.35
7668;BME280;3876;42.204;24.686;2023-03-25T08:42:56;99001.31;;;19.90;53.86
7668;BME280;3876;42.204;24.686;2023-03-25T08:45:22;98993.66;;;20.00;52.96
7668;BME280;3876;42.204;24.686;2023-03-25T08:47:51;98996.06;;;20.25;53.00
7668;BME280;3876;42.204;24.686;2023-03-25T08:50:17;98984.03;;;20.46;51.82
7668;BME280;3876;42.204;24.686;2023-03-25T08:52:45;98979.31;;;20.51;50.58
7668;BME280;3876;42.204;24.686;2023-03-25T08:55:12;98979.03;;;20.65;52.25
7668;BME280;3876;42.204;24.686;2023-03-25T08:57:40;98971.47;;;20.73;51.07
7668;BME280;3876;42.204;24.686;2023-03-25T09:00:08;98968.97;;;20.72;49.66
7668;BME280;3876;42.204;24.686;2023-03-25T09:02:38;98961.75;;;20.75;49.95
7668;BME280;3876;42.204;24.686;2023-03-25T09:05:07;98960.59;;;20.57;51.72
7668;BME280;3876;42.204;24.686;2023-03-25T09:07:35;98956.34;;;20.67;50.54
7668;BME280;3876;42.204;24.686;2023-03-25T09:10:03;98959.84;;;20.88;52.49
7668;BME280;3876;42.204;24.686;2023-03-25T09:12:30;98950.59;;;20.95;50.10
7668;BME280;3876;42.204;24.686;2023-03-25T09:14:58;98948.09;;;20.94;52.02
7668;BME280;3876;42.204;24.686;2023-03-25T09:17:25;98944.88;;;21.02;51.67
7668;BME280;3876;42.204;24.686;2023-03-25T09:19:52;98938.06;;;20.89;51.82
7668;BME280;3876;42.204;24.686;2023-03-25T09:22:20;98930.72;;;20.72;50.76
7668;BME280;3876;42.204;24.686;2023-03-25T09:24:47;98931.66;;;20.93;50.66
7668;BME280;3876;42.204;24.686;2023-03-25T09:27:14;98933.75;;;21.11;52.88
7668;BME280;3876;42.204;24.686;2023-03-25T09:29:41;98929.66;;;21.29;50.42
7668;BME280;3876;42.204;24.686;2023-03-25T09:32:07;98928.19;;;21.36;50.24
7668;BME280;3876;42.204;24.686;2023-03-25T09:34:34;98921.72;;;21.51;49.76
7668;BME280;3876;42.204;24.686;2023-03-25T09:37:02;98920.47;;;21.66;47.79
7668;BME280;3876;42.204;24.686;2023-03-25T09:39:30;98910.66;;;21.79;49.65
7668;BME280;3876;42.204;24.686;2023-03-25T09:42:06;98911.06;;;21.95;50.35
7668;BME280;3876;42.204;24.686;2023-03-25T09:44:45;98906.59;;;21.45;49.70
7668;BME280;3876;42.204;24.686;2023-03-25T09:47:17;98888.28;;;21.35;50.71
7668;BME280;3876;42.204;24.686;2023-03-25T09:49:47;98894.50;;;21.65;53.07
7668;BME280;3876;42.204;24.686;2023-03-25T09:52:21;98894.56;;;21.95;54.26
7668;BME280;3876;42.204;24.686;2023-03-25T09:54:55;98885.97;;;22.14;51.79
7668;BME280;3876;42.204;24.686;2023-03-25T09:57:26;98890.59;;;22.31;49.91
7668;BME280;3876;42.204;24.686;2023-03-25T09:59:55;98894.25;;;22.19;49.11
7668;BME280;3876;42.204;24.686;2023-03-25T10:02:30;98884.25;;;21.93;49.30
7668;BME280;3876;42.204;24.686;2023-03-25T10:05:31;98874.66;;;21.73;50.30
7668;BME280;3876;42.204;24.686;2023-03-25T10:08:10;98859.88;;;21.83;52.45
7668;BME280;3876;42.204;24.686;2023-03-25T10:10:48;98867.44;;;21.86;50.20
7668;BME280;3876;42.204;24.686;2023-03-25T10:13:22;98846.38;;;21.78;50.31
7668;BME280;3876;42.204;24.686;2023-03-25T10:15:55;98850.66;;;22.00;49.11
7668;BME280;3876;42.204;24.686;2023-03-25T10:18:39;98850.72;;;21.89;49.45
7668;BME280;3876;42.204;24.686;2023-03-25T10:21:13;98847.00;;;21.91;51.66
7668;BME280;3876;42.204;24.686;2023-03-25T10:23:42;98843.53;;;22.12;48.06
7668;BME280;3876;42.204;24.686;2023-03-25T10:26:15;98835.38;;;22.35;48.83
7668;BME280;3876;42.204;24.686;2023-03-25T10:28:49;98839.13;;;22.62;44.65
7668;BME280;3876;42.204;24.686;2023-03-25T10:31:19;98815.22;;;22.66;46.21
7668;BME280;3876;42.204;24.686;2023-03-25T10:33:52;98824.94;;;22.55;46.14
7668;BME280;3876;42.204;24.686;2023-03-25T10:36:27;98810.09;;;22.55;47.23
7668;BME280;3876;42.204;24.686;2023-03-25T10:38:58;98800.22;;;22.68;46.82
7668;BME280;3876;42.204;24.686;2023-03-25T10:41:33;98791.59;;;22.68;45.97
7668;BME280;3876;42.204;24.686;2023-03-25T10:44:06;98788.25;;;22.75;46.64
7668;BME280;3876;42.204;24.686;2023-03-25T10:46:37;98790.31;;;22.81;47.85
7668;BME280;3876;42.204;24.686;2023-03-25T10:49:13;98791.00;;;23.02;47.77
7668;BME280;3876;42.204;24.686;2023-03-25T10:51:42;98784.69;;;22.95;46.58
7668;BME280;3876;42.204;24.686;2023-03-25T10:54:10;98781.50;;;23.01;45.94
7668;BME280;3876;42.204;24.686;2023-03-25T10:56:41;98776.97;;;22.84;45.37
7668;BME280;3876;42.204;24.686;2023-03-25T10:59:15;98770.41;;;22.71;47.03
7668;BME280;3876;42.204;24.686;2023-03-25T11:01:43;98771.06;;;22.82;45.72
7668;BME280;3876;42.204;24.686;2023-03-25T11:04:13;98765.44;;;22.87;45.77
7668;BME280;3876;42.204;24.686;2023-03-25T11:06:45;98752.38;;;22.68;47.07
7668;BME280;3876;42.204;24.686;2023-03-25T11:09:16;98756.19;;;22.54;48.37
7668;BME280;3876;42.204;24.686;2023-03-25T11:11:49;98756.19;;;22.54;48.35
7668;BME280;3876;42.204;24.686;2023-03-25T11:14:21;98743.72;;;22.67;48.44
7668;BME280;3876;42.204;24.686;2023-03-25T11:16:53;98749.91;;;22.76;47.36
7668;BME280;3876;42.204;24.686;2023-03-25T11:19:25;98745.22;;;22.79;46.96
7668;BME280;3876;42.204;24.686;2023-03-25T11:21:54;98740.66;;;22.91;48.43
7668;BME280;3876;42.204;24.686;2023-03-25T11:24:28;98730.47;;;22.97;47.69
7668;BME280;3876;42.204;24.686;2023-03-25T11:26:57;98730.41;;;23.17;48.15
7668;BME280;3876;42.204;24.686;2023-03-25T11:29:25;98724.53;;;23.15;45.57
7668;BME280;3876;42.204;24.686;2023-03-25T11:32:03;98723.72;;;23.05;46.38
7668;BME280;3876;42.204;24.686;2023-03-25T11:34:30;98715.00;;;23.14;46.91
7668;BME280;3876;42.204;24.686;2023-03-25T11:36:59;98707.47;;;23.11;45.42
7668;BME280;3876;42.204;24.686;2023-03-25T11:39:32;98707.09;;;23.33;46.84
7668;BME280;3876;42.204;24.686;2023-03-25T11:42:13;98688.25;;;23.39;45.62
7668;BME280;3876;42.204;24.686;2023-03-25T11:44:40;98694.56;;;23.46;45.18
7668;BME280;3876;42.204;24.686;2023-03-25T11:47:08;98689.22;;;23.38;46.15
7668;BME280;3876;42.204;24.686;2023-03-25T11:49:38;98685.94;;;23.36;45.42
7668;BME280;3876;42.204;24.686;2023-03-25T11:52:07;98680.41;;;23.39;46.15
7668;BME280;3876;42.204;24.686;2023-03-25T11:54:35;98669.38;;;23.45;45.47
7668;BME280;3876;42.204;24.686;2023-03-25T11:57:09;98665.97;;;23.62;45.32
7668;BME280;3876;42.204;24.686;2023-03-25T11:59:42;98664.81;;;23.74;45.89
7668;BME280;3876;42.204;24.686;2023-03-25T12:02:20;98659.06;;;23.88;43.98
7668;BME280;3876;42.204;24.686;2023-03-25T12:05:00;98658.28;;;24.05;44.60
7668;BME280;3876;42.204;24.686;2023-03-25T12:07:28;98654.75;;;23.97;45.34
7668;BME280;3876;42.204;24.686;2023-03-25T12:09:57;98644.44;;;23.95;43.86
7668;BME280;3876;42.204;24.686;2023-03-25T12:12:44;98638.53;;;23.93;43.64
7668;BME280;3876;42.204;24.686;2023-03-25T12:15:24;98635.81;;;23.85;43.56
7668;BME280;3876;42.204;24.686;2023-03-25T12:18:06;98626.47;;;23.83;45.25
7668;BME280;3876;42.204;24.686;2023-03-25T12:20:40;98629.50;;;23.78;46.36
7668;BME280;3876;42.204;24.686;2023-03-25T12:23:17;98630.63;;;23.76;44.62
7668;BME280;3876;42.204;24.686;2023-03-25T12:25:53;98626.91;;;23.78;45.72
7668;BME280;3876;42.204;24.686;2023-03-25T12:31:34;98617.41;;;23.77;44.11
7668;BME280;3876;42.204;24.686;2023-03-25T12:34:10;98614.88;;;24.03;43.81
7668;BME280;3876;42.204;24.686;2023-03-25T12:36:47;98616.38;;;24.05;43.38
7668;BME280;3876;42.204;24.686;2023-03-25T12:39:29;98617.16;;;24.16;42.54
7668;BME280;3876;42.204;24.686;2023-03-25T12:42:06;98609.06;;;24.27;42.30
7668;BME280;3876;42.204;24.686;2023-03-25T12:44:46;98612.34;;;24.29;44.49
7668;BME280;3876;42.204;24.686;2023-03-25T12:47:22;98603.81;;;24.27;43.96
7668;BME280;3876;42.204;24.686;2023-03-25T12:50:04;98598.53;;;24.19;44.46
7668;BME280;3876;42.204;24.686;2023-03-25T12:52:40;98580.03;;;24.02;44.69
7668;BME280;3876;42.204;24.686;2023-03-25T12:55:24;98583.25;;;23.96;43.47
7668;BME280;3876;42.204;24.686;2023-03-25T12:58:07;98576.88;;;23.99;43.67
7668;BME280;3876;42.204;24.686;2023-03-25T13:00:46;98568.50;;;23.95;45.12
7668;BME280;3876;42.204;24.686;2023-03-25T13:03:38;98565.06;;;23.77;43.12
7668;BME280;3876;42.204;24.686;2023-03-25T13:06:16;98560.16;;;23.74;43.49
7668;BME280;3876;42.204;24.686;2023-03-25T13:08:50;98555.28;;;23.79;42.72
7668;BME280;3876;42.204;24.686;2023-03-25T13:11:22;98556.28;;;24.04;42.95
7668;BME280;3876;42.204;24.686;2023-03-25T13:13:52;98555.34;;;24.23;42.67
7668;BME280;3876;42.204;24.686;2023-03-25T13:16:23;98549.19;;;24.32;43.00
7668;BME280;3876;42.204;24.686;2023-03-25T13:18:59;98546.41;;;24.33;42.80
7668;BME280;3876;42.204;24.686;2023-03-25T13:21:29;98542.88;;;24.42;44.79
7668;BME280;3876;42.204;24.686;2023-03-25T13:24:00;98544.66;;;24.42;44.19
7668;BME280;3876;42.204;24.686;2023-03-25T13:26:29;98546.25;;;24.35;43.84
7668;BME280;3876;42.204;24.686;2023-03-25T13:28:59;98539.97;;;24.28;43.75
7668;BME280;3876;42.204;24.686;2023-03-25T13:31:32;98544.59;;;24.34;43.60
7668;BME280;3876;42.204;24.686;2023-03-25T13:34:10;98539.09;;;24.19;43.36
7668;BME280;3876;42.204;24.686;2023-03-25T13:36:41;98533.41;;;24.06;43.77
7668;BME280;3876;42.204;24.686;2023-03-25T13:39:12;98530.31;;;24.11;43.88
7668;BME280;3876;42.204;24.686;2023-03-25T13:41:43;98525.84;;;24.21;43.81